Time;durP1;ratioP1;P1;durP2;ratioP2;P2;SDS_P1;SDS_P2;PMS_P1;PMS_P2;Temp;Humidity;BMP_temperature;BMP_pressure;BME280_temperature;BME280_humidity;BME280_pressure;Samples;Min_cycle;Max_cycle;Signal;HPM_P1;HPM_P2
2023/07/18 00:00:25;;;;;;;0.20;0.20;;;;;;;21.84;55.99;99207.78;4986986;28;20050;-72
2023/07/18 00:02:51;;;;;;;0.20;0.20;;;;;;;21.79;54.54;99195.00;4966557;28;20047;-72
2023/07/18 00:05:21;;;;;;;0.20;0.20;;;;;;;21.76;56.22;99189.34;4944396;28;20306;-73
2023/07/18 00:07:47;;;;;;;0.20;0.20;;;;;;;21.72;56.67;99194.06;4982786;28;20050;-73
2023/07/18 00:10:14;;;;;;;0.20;0.20;;;;;;;21.67;57.04;99190.38;4998722;28;20506;-73
2023/07/18 00:12:40;;;;;;;0.20;0.20;;;;;;;21.60;57.41;99186.59;4999311;28;20104;-73
2023/07/18 00:15:09;;;;;;;0.20;0.20;;;;;;;21.56;57.15;99188.50;4984350;28;20042;-72
2023/07/18 00:17:37;;;;;;;0.20;0.20;;;;;;;21.52;57.29;99186.47;4984971;28;20484;-73
2023/07/18 00:20:07;;;;;;;0.20;0.20;;;;;;;21.47;57.22;99183.97;4980598;28;20138;-71
2023/07/18 00:22:35;;;;;;;0.20;0.20;;;;;;;21.47;57.57;99199.84;4985270;28;20050;-72
2023/07/18 00:25:01;;;;;;;0.20;0.20;;;;;;;21.44;57.39;99198.59;4984007;28;20566;-72
2023/07/18 00:27:30;;;;;;;0.20;0.20;;;;;;;21.41;57.25;99193.75;4983173;28;20054;-73
2023/07/18 00:29:56;;;;;;;0.17;0.17;;;;;;;21.43;57.16;99204.53;4983883;28;20176;-73
2023/07/18 00:32:25;;;;;;;0.22;0.22;;;;;;;21.43;56.97;99193.41;4998089;28;20053;-73
2023/07/18 00:34:56;;;;;;;0.20;0.20;;;;;;;21.39;56.92;99184.97;4962590;28;20201;-73
2023/07/18 00:37:22;;;;;;;0.20;0.20;;;;;;;21.42;57.35;99197.34;4976343;28;20073;-72
2023/07/18 00:39:51;;;;;;;0.30;0.30;;;;;;;21.41;57.16;99192.97;4998645;28;20046;-73
2023/07/18 00:42:17;;;;;;;0.20;0.20;;;;;;;21.39;57.26;99177.44;4981920;28;20050;-73
2023/07/18 00:44:44;;;;;;;0.20;0.20;;;;;;;21.38;57.77;99183.38;4984901;28;20046;-72
2023/07/18 00:47:10;;;;;;;0.20;0.20;;;;;;;21.36;57.05;99171.81;4999605;28;20058;-73
2023/07/18 00:49:36;;;;;;;0.20;0.20;;;;;;;21.34;57.45;99174.94;4964769;28;20053;-74
2023/07/18 00:52:06;;;;;;;0.20;0.20;;;;;;;21.31;57.90;99175.66;4983394;28;20058;-73
2023/07/18 00:54:33;;;;;;;0.20;0.20;;;;;;;21.32;57.91;99177.28;4984755;28;20057;-73
2023/07/18 00:57:02;;;;;;;0.10;0.10;;;;;;;21.31;57.70;99178.44;4950857;28;20042;-73
2023/07/18 00:59:29;;;;;;;0.10;0.10;;;;;;;21.29;57.35;99166.06;4963384;28;20046;-73
2023/07/18 01:01:56;;;;;;;0.20;0.20;;;;;;;21.32;57.99;99162.59;4967062;28;20054;-73
2023/07/18 01:04:22;;;;;;;0.20;0.20;;;;;;;21.19;58.82;99145.22;5001076;28;20042;-72
2023/07/18 01:06:52;;;;;;;0.20;0.20;;;;;;;21.21;58.74;99157.59;4974696;28;20199;-73
2023/07/18 01:09:19;;;;;;;0.10;0.10;;;;;;;21.14;59.17;99157.41;4963278;28;20047;-72
2023/07/18 01:11:45;;;;;;;0.20;0.20;;;;;;;21.08;59.52;99156.91;4961627;28;20046;-73
2023/07/18 01:14:13;;;;;;;0.20;0.20;;;;;;;21.03;60.43;99146.06;4964985;28;20042;-72
2023/07/18 01:16:41;;;;;;;0.20;0.20;;;;;;;20.99;61.07;99155.47;4976671;28;20050;-71
2023/07/18 01:19:07;;;;;;;0.20;0.20;;;;;;;20.88;61.28;99144.94;4996638;28;20082;-73
2023/07/18 01:21:35;;;;;;;0.20;0.20;;;;;;;20.80;61.57;99140.31;4969211;28;20042;-73
2023/07/18 01:24:01;;;;;;;0.20;0.20;;;;;;;20.74;61.86;99137.00;4978975;28;20056;-73
2023/07/18 01:26:28;;;;;;;0.20;0.20;;;;;;;20.71;62.34;99134.16;4950403;28;20434;-74
2023/07/18 01:28:55;;;;;;;0.20;0.20;;;;;;;20.69;62.04;99127.00;4972110;28;20430;-73
2023/07/18 01:31:21;;;;;;;0.20;0.20;;;;;;;20.69;62.18;99126.19;4994736;28;20046;-73
2023/07/18 01:33:47;;;;;;;0.20;0.20;;;;;;;20.71;62.08;99125.84;4981200;28;20133;-74
2023/07/18 01:36:15;;;;;;;0.20;0.20;;;;;;;20.74;61.63;99123.13;4980984;28;20042;-73
2023/07/18 01:38:44;;;;;;;0.20;0.20;;;;;;;20.77;61.89;99105.75;4981487;28;20108;-72
2023/07/18 01:41:10;;;;;;;0.20;0.20;;;;;;;20.81;61.69;99103.06;4983029;28;20054;-72
2023/07/18 01:43:36;;;;;;;0.20;0.20;;;;;;;20.85;61.45;99103.97;4984993;28;20064;-73
2023/07/18 01:46:02;;;;;;;0.20;0.20;;;;;;;20.83;61.98;99101.56;4966669;28;20058;-73
2023/07/18 01:48:28;;;;;;;0.30;0.30;;;;;;;20.82;62.21;99091.59;5000791;28;20046;-74
2023/07/18 01:50:56;;;;;;;0.20;0.20;;;;;;;20.86;61.48;99090.88;4989238;28;20093;-73
2023/07/18 01:53:26;;;;;;;0.20;0.20;;;;;;;20.90;61.76;99087.03;4984755;28;20073;-73
2023/07/18 01:55:58;;;;;;;0.20;0.20;;;;;;;20.93;61.41;99091.84;4969113;28;20105;-73
2023/07/18 01:58:24;;;;;;;0.20;0.20;;;;;;;20.89;61.65;99081.81;4984023;28;20047;-73
2023/07/18 02:00:51;;;;;;;0.20;0.20;;;;;;;20.90;61.80;99078.69;4951465;28;20417;-72
2023/07/18 02:03:18;;;;;;;0.20;0.20;;;;;;;20.87;61.67;99073.88;4950350;28;20070;-74
2023/07/18 02:05:44;;;;;;;0.20;0.20;;;;;;;20.88;61.80;99071.88;4983438;28;20057;-73
2023/07/18 02:08:10;;;;;;;0.20;0.20;;;;;;;20.90;62.12;99072.31;4986204;28;20427;-73
2023/07/18 02:10:36;;;;;;;0.30;0.30;;;;;;;20.85;61.55;99062.31;4964361;28;20062;-73
2023/07/18 02:13:04;;;;;;;0.20;0.20;;;;;;;20.85;61.53;99067.88;4967869;28;20057;-74
2023/07/18 02:15:32;;;;;;;0.20;0.20;;;;;;;20.80;62.33;99066.16;4992864;28;20050;-73
2023/07/18 02:17:59;;;;;;;0.20;0.20;;;;;;;20.69;62.06;99060.34;4950346;28;20145;-73
2023/07/18 02:20:25;;;;;;;0.20;0.20;;;;;;;20.68;62.74;99063.47;4982317;28;20054;-73
2023/07/18 02:22:51;;;;;;;0.20;0.20;;;;;;;20.65;62.23;99065.00;4949083;28;20406;-73
2023/07/18 02:25:18;;;;;;;0.20;0.20;;;;;;;20.66;62.80;99072.16;4969332;28;20034;-73
2023/07/18 02:27:46;;;;;;;0.30;0.30;;;;;;;20.67;61.03;99072.97;4977244;28;20047;-73
2023/07/18 02:30:14;;;;;;;0.20;0.20;;;;;;;20.71;62.15;99071.06;4986734;28;20054;-73
2023/07/18 02:32:42;;;;;;;0.20;0.20;;;;;;;20.72;61.78;99060.78;4969647;28;20126;-73
2023/07/18 02:35:17;;;;;;;0.20;0.20;;;;;;;20.78;62.27;99054.59;4983915;28;20058;-73
2023/07/18 02:37:46;;;;;;;0.20;0.20;;;;;;;20.83;62.06;99059.06;4967655;28;20431;-73
2023/07/18 02:40:14;;;;;;;0.20;0.20;;;;;;;20.85;62.09;99047.59;5001796;28;20148;-73
2023/07/18 02:42:40;;;;;;;0.20;0.20;;;;;;;20.87;61.72;99050.81;4985824;28;20074;-73
2023/07/18 02:45:08;;;;;;;0.20;0.20;;;;;;;20.92;60.87;99042.22;4981686;28;20061;-73
2023/07/18 02:47:38;;;;;;;0.28;0.28;;;;;;;20.99;59.30;99053.47;4977352;28;20412;-72
2023/07/18 02:50:06;;;;;;;0.20;0.20;;;;;;;21.03;59.97;99051.56;4958135;28;20149;-73
2023/07/18 02:52:33;;;;;;;0.30;0.30;;;;;;;21.05;60.45;99063.13;4963134;28;20062;-72
2023/07/18 02:55:00;;;;;;;0.20;0.20;;;;;;;21.01;61.93;99050.34;4971762;28;20144;-73
2023/07/18 02:57:26;;;;;;;0.20;0.20;;;;;;;20.97;61.74;99047.47;4983604;28;20566;-72
2023/07/18 02:59:53;;;;;;;0.30;0.30;;;;;;;20.96;61.38;99052.22;4983998;28;20054;-72
2023/07/18 03:02:20;;;;;;;0.20;0.20;;;;;;;21.01;62.19;99053.13;4984606;28;20778;-73
2023/07/18 03:04:48;;;;;;;0.30;0.30;;;;;;;20.96;62.45;99043.09;4987337;28;20038;-73
2023/07/18 03:07:17;;;;;;;0.30;0.30;;;;;;;20.95;62.53;99042.28;5000188;28;20046;-73
2023/07/18 03:09:44;;;;;;;0.30;0.30;;;;;;;21.00;62.23;99043.19;5003347;28;20046;-73
2023/07/18 03:12:11;;;;;;;0.30;0.30;;;;;;;20.97;62.75;99047.47;4981716;28;20074;-74
2023/07/18 03:14:37;;;;;;;0.30;0.30;;;;;;;20.92;63.38;99042.22;4969100;28;20522;-73
2023/07/18 03:17:03;;;;;;;0.20;0.20;;;;;;;20.92;63.51;99037.47;4976456;28;20442;-71
2023/07/18 03:19:31;;;;;;;0.20;0.20;;;;;;;20.92;62.75;99031.13;4984561;28;20442;-72
2023/07/18 03:22:02;;;;;;;0.30;0.30;;;;;;;20.83;64.32;99026.56;5001098;28;20047;-74
2023/07/18 03:24:28;;;;;;;0.20;0.20;;;;;;;20.95;64.73;99035.94;4984175;28;20536;-73
2023/07/18 03:26:55;;;;;;;0.30;0.30;;;;;;;21.02;64.38;99036.06;4967895;28;20505;-73
2023/07/18 03:29:23;;;;;;;0.30;0.30;;;;;;;21.07;64.24;99023.88;4983519;28;20537;-72
2023/07/18 03:31:49;;;;;;;0.30;0.30;;;;;;;21.19;63.48;99031.25;4986316;28;20062;-73
2023/07/18 03:34:18;;;;;;;0.20;0.20;;;;;;;21.18;63.14;99013.78;4985431;28;20072;-73
2023/07/18 03:36:46;;;;;;;0.30;0.30;;;;;;;21.24;63.31;99019.88;4967804;28;20051;-73
2023/07/18 03:39:14;;;;;;;0.30;0.30;;;;;;;21.23;63.83;99021.03;4963065;28;20576;-73
2023/07/18 03:41:40;;;;;;;0.30;0.30;;;;;;;21.22;62.98;99011.06;4967820;28;20533;-74
2023/07/18 03:44:08;;;;;;;0.30;0.30;;;;;;;21.22;63.54;99017.44;4965275;28;20130;-73
2023/07/18 03:46:35;;;;;;;0.30;0.30;;;;;;;21.27;64.16;99015.53;4963351;28;20046;-74
2023/07/18 03:49:01;;;;;;;0.30;0.30;;;;;;;21.32;63.60;99009.69;4973959;28;20042;-72
2023/07/18 03:51:28;;;;;;;0.30;0.30;;;;;;;21.38;63.00;99019.34;4980913;28;20321;-73
2023/07/18 03:53:54;;;;;;;0.30;0.30;;;;;;;21.46;63.01;99018.28;4984085;28;20048;-75
2023/07/18 03:56:22;;;;;;;0.30;0.30;;;;;;;21.50;63.76;99018.34;4982741;28;20101;-73
2023/07/18 03:58:50;;;;;;;0.30;0.30;;;;;;;21.49;63.44;99003.66;4975089;28;20288;-72
2023/07/18 04:01:16;;;;;;;0.30;0.30;;;;;;;21.57;63.09;99012.13;4980875;28;20042;-73
2023/07/18 04:03:43;;;;;;;0.30;0.30;;;;;;;21.67;63.01;98997.66;4962568;28;20053;-73
2023/07/18 04:06:09;;;;;;;0.30;0.30;;;;;;;21.75;63.07;98990.25;4966237;28;20569;-73
2023/07/18 04:08:36;;;;;;;0.30;0.30;;;;;;;21.81;63.08;98995.13;4978243;28;20290;-74
2023/07/18 04:11:02;;;;;;;0.22;0.22;;;;;;;21.88;62.21;98988.06;4981974;28;20383;-73
2023/07/18 04:13:29;;;;;;;0.30;0.30;;;;;;;22.02;62.18;98984.75;4984500;28;20132;-73
2023/07/18 04:15:57;;;;;;;0.30;0.30;;;;;;;22.13;62.39;98988.50;4997328;28;20046;-73
2023/07/18 04:18:23;;;;;;;0.30;0.30;;;;;;;22.23;61.22;98981.47;4982808;28;20050;-74
2023/07/18 04:20:57;;;;;;;0.20;0.20;;;;;;;22.33;61.08;98989.19;4983014;28;20141;-73
2023/07/18 04:23:23;;;;;;;0.30;0.30;;;;;;;22.41;60.22;98984.53;4966124;28;20085;-73
2023/07/18 04:25:58;;;;;;;0.30;0.30;;;;;;;22.48;59.95;99004.19;4952428;28;20043;-73
2023/07/18 04:28:26;;;;;;;0.30;0.30;;;;;;;22.52;59.80;98996.69;4970301;28;20054;-73
2023/07/18 04:30:54;;;;;;;0.30;0.30;;;;;;;22.54;60.78;98989.94;4982471;28;20140;-74
2023/07/18 04:33:20;;;;;;;0.30;0.30;;;;;;;22.51;60.13;98986.72;4982093;28;20112;-72
2023/07/18 04:35:46;;;;;;;0.30;0.30;;;;;;;22.44;60.24;98978.22;4997485;28;20050;-74
2023/07/18 04:38:13;;;;;;;0.30;0.30;;;;;;;22.49;60.62;98986.31;4983322;28;20801;-73
2023/07/18 04:40:40;;;;;;;0.30;0.30;;;;;;;22.57;60.90;98992.78;4984273;28;20076;-73
2023/07/18 04:43:06;;;;;;;0.20;0.20;;;;;;;22.61;60.64;98988.06;4984775;28;20050;-73
2023/07/18 04:45:32;;;;;;;0.20;0.20;;;;;;;22.67;60.91;98988.53;4949007;28;20293;-73
2023/07/18 04:48:00;;;;;;;0.20;0.20;;;;;;;22.73;60.65;98986.22;4980150;28;20050;-74
2023/07/18 04:50:28;;;;;;;0.30;0.30;;;;;;;22.72;60.78;98995.78;4982764;28;20585;-74
2023/07/18 04:52:54;;;;;;;0.30;0.30;;;;;;;22.75;61.02;98992.22;4982440;28;20073;-73
2023/07/18 04:55:21;;;;;;;0.30;0.30;;;;;;;22.77;61.02;98981.50;4949834;28;20053;-73
2023/07/18 04:57:47;;;;;;;0.30;0.30;;;;;;;22.80;61.09;98980.75;4983074;28;20813;-73
2023/07/18 05:00:14;;;;;;;0.30;0.30;;;;;;;22.84;60.53;98972.44;4983852;28;20050;-73
2023/07/18 05:02:41;;;;;;;0.30;0.30;;;;;;;22.86;60.37;98954.13;4983707;28;20061;-74
2023/07/18 05:05:09;;;;;;;0.30;0.30;;;;;;;23.01;59.63;98971.03;4983672;28;20066;-73
2023/07/18 05:07:35;;;;;;;0.30;0.30;;;;;;;23.08;59.40;98957.19;4982513;28;20074;-74
2023/07/18 05:10:02;;;;;;;0.30;0.30;;;;;;;23.15;59.23;98962.84;4984719;28;20518;-73
2023/07/18 05:12:30;;;;;;;0.30;0.30;;;;;;;23.25;57.37;98958.56;4982749;28;20060;-73
2023/07/18 05:14:56;;;;;;;0.30;0.30;;;;;;;23.29;58.46;98947.50;4990875;28;20284;-74
2023/07/18 05:17:22;;;;;;;0.30;0.30;;;;;;;23.37;58.47;98949.97;4980549;28;20050;-73
2023/07/18 05:19:48;;;;;;;0.30;0.30;;;;;;;23.51;58.49;98943.75;4980846;28;20045;-74
2023/07/18 05:22:16;;;;;;;0.40;0.40;;;;;;;23.74;56.70;98945.53;5002227;28;20341;-74
2023/07/18 05:24:43;;;;;;;0.35;0.35;;;;;;;24.06;56.31;98955.41;4988536;28;20097;-73
2023/07/18 05:27:09;;;;;;;0.30;0.30;;;;;;;24.31;55.48;98951.97;4986126;28;20045;-74
2023/07/18 05:29:35;;;;;;;0.30;0.30;;;;;;;24.40;55.58;98944.06;4984066;28;20049;-74
2023/07/18 05:32:01;;;;;;;0.30;0.30;;;;;;;24.49;55.53;98935.34;4962091;28;20054;-74
2023/07/18 05:34:27;;;;;;;0.30;0.30;;;;;;;24.57;55.08;98941.78;4980740;28;20050;-73
2023/07/18 05:36:54;;;;;;;0.30;0.30;;;;;;;24.58;55.42;98935.78;4987478;28;20042;-73
2023/07/18 05:39:22;;;;;;;0.30;0.30;;;;;;;24.52;55.51;98944.94;4990028;28;20050;-73
2023/07/18 05:41:48;;;;;;;0.30;0.30;;;;;;;24.41;56.34;98928.91;5001487;28;20034;-72
2023/07/18 05:44:16;;;;;;;0.30;0.30;;;;;;;24.47;55.76;98921.75;4985360;28;20557;-72
2023/07/18 05:46:42;;;;;;;0.30;0.30;;;;;;;24.40;56.17;98913.34;4987517;28;20297;-73
2023/07/18 05:49:08;;;;;;;0.20;0.20;;;;;;;24.25;56.17;98915.25;4969494;28;20151;-73
2023/07/18 05:51:35;;;;;;;0.28;0.28;;;;;;;24.29;56.51;98918.88;4986580;28;20058;-72
2023/07/18 05:54:04;;;;;;;0.30;0.30;;;;;;;24.30;56.40;98906.50;4985475;28;20050;-73
2023/07/18 05:56:31;;;;;;;0.30;0.30;;;;;;;24.28;56.69;98913.66;4984234;28;20050;-72
2023/07/18 05:58:59;;;;;;;0.30;0.30;;;;;;;24.07;57.39;98893.59;4982829;28;20069;-73
2023/07/18 06:01:25;;;;;;;0.30;0.30;;;;;;;24.12;56.99;98895.22;5004021;28;20070;-73
2023/07/18 06:03:51;;;;;;;0.30;0.30;;;;;;;24.18;57.34;98890.88;4975321;28;20050;-72
2023/07/18 06:06:19;;;;;;;0.30;0.30;;;;;;;24.24;57.44;98887.72;4972817;28;20186;-73
2023/07/18 06:08:45;;;;;;;0.30;0.30;;;;;;;24.21;57.56;98875.34;4979723;28;20047;-74
2023/07/18 06:11:11;;;;;;;0.30;0.30;;;;;;;24.27;58.00;98876.56;4994881;28;20047;-74
2023/07/18 06:13:41;;;;;;;0.30;0.30;;;;;;;24.29;58.06;98874.19;4985429;28;20059;-73
2023/07/18 06:16:08;;;;;;;0.30;0.30;;;;;;;24.28;57.61;98866.19;4984812;28;20521;-74
2023/07/18 06:18:35;;;;;;;;;;;;;;;24.29;57.50;98865.81;4982723;28;20046;-73
2023/07/18 06:21:02;;;;;;;0.30;0.30;;;;;;;24.32;57.27;98864.22;4975998;28;19925;-73
2023/07/18 06:23:32;;;;;;;0.30;0.30;;;;;;;24.34;57.54;98851.47;4975549;28;20556;-75
2023/07/18 06:25:58;;;;;;;0.30;0.30;;;;;;;24.56;56.75;98851.56;4987032;28;20046;-74
2023/07/18 06:28:25;;;;;;;0.30;0.30;;;;;;;24.74;55.89;98850.81;4986303;28;20070;-74
2023/07/18 06:30:55;;;;;;;0.30;0.30;;;;;;;24.91;55.26;98850.13;4978958;28;20089;-74
2023/07/18 06:33:21;;;;;;;0.30;0.30;;;;;;;25.04;54.81;98846.94;4971006;28;20085;-74
2023/07/18 06:35:51;;;;;;;0.30;0.30;;;;;;;25.17;54.45;98847.38;4985969;28;20601;-73
2023/07/18 06:38:17;;;;;;;0.40;0.40;;;;;;;25.34;54.22;98841.00;4986541;28;20077;-73
2023/07/18 06:40:44;;;;;;;0.30;0.30;;;;;;;25.56;53.95;98855.00;4967077;28;20549;-73
2023/07/18 06:43:10;;;;;;;0.30;0.30;;;;;;;25.68;53.68;98862.22;4983506;28;20043;-74
2023/07/18 06:45:37;;;;;;;0.40;0.40;;;;;;;25.91;53.40;98860.97;5002810;28;20046;-74
2023/07/18 06:48:05;;;;;;;0.30;0.30;;;;;;;26.18;52.43;98869.75;4987228;28;20112;-73
2023/07/18 06:50:31;;;;;;;0.30;0.30;;;;;;;26.13;52.84;98855.31;4987782;28;20050;-73
2023/07/18 06:52:57;;;;;;;0.40;0.40;;;;;;;26.09;53.11;98855.34;4966828;28;20158;-73
2023/07/18 06:55:23;;;;;;;0.30;0.30;;;;;;;26.14;53.48;98849.31;4982171;28;20050;-73
2023/07/18 06:57:49;;;;;;;0.30;0.30;;;;;;;26.06;53.61;98853.34;4969271;28;20054;-74
2023/07/18 07:00:19;;;;;;;0.30;0.30;;;;;;;25.76;54.65;98849.00;4983654;28;20120;-72
2023/07/18 07:02:46;;;;;;;0.30;0.30;;;;;;;25.58;54.89;98844.19;4985733;28;20054;-74
2023/07/18 07:05:14;;;;;;;0.30;0.30;;;;;;;25.43;56.04;98842.56;4984458;28;20046;-73
2023/07/18 07:07:40;;;;;;;0.30;0.30;;;;;;;25.37;55.99;98838.59;4983577;28;20153;-73
2023/07/18 07:10:10;;;;;;;0.40;0.40;;;;;;;25.28;55.76;98841.78;4986314;28;20085;-73
2023/07/18 07:12:36;;;;;;;0.30;0.30;;;;;;;25.32;55.96;98834.19;4987715;28;20509;-73
2023/07/18 07:15:03;;;;;;;0.30;0.30;;;;;;;25.58;55.20;98827.41;4986983;28;20054;-73
2023/07/18 07:17:33;;;;;;;0.32;0.32;;;;;;;26.00;53.98;98827.78;4983354;28;20050;-74
2023/07/18 07:20:00;;;;;;;0.40;0.40;;;;;;;26.38;52.77;98826.47;4983942;28;20149;-73
2023/07/18 07:22:28;;;;;;;0.40;0.40;;;;;;;26.73;51.73;98821.91;4984291;28;20089;-73
2023/07/18 07:24:54;;;;;;;0.40;0.40;;;;;;;26.89;50.98;98813.81;4986541;28;20078;-73
2023/07/18 07:27:20;;;;;;;0.40;0.40;;;;;;;26.89;50.60;98821.44;4988701;28;20042;-73
2023/07/18 07:29:47;;;;;;;0.40;0.40;;;;;;;26.84;50.08;98814.22;4986648;28;20393;-73
2023/07/18 07:32:13;;;;;;;0.40;0.40;;;;;;;26.87;50.33;98812.66;4985118;28;20046;-73
2023/07/18 07:34:39;;;;;;;0.40;0.40;;;;;;;26.93;50.21;98813.81;4983645;28;20076;-74
2023/07/18 07:37:05;;;;;;;0.45;0.45;;;;;;;27.03;49.96;98812.94;4966024;28;20126;-73
2023/07/18 07:39:33;;;;;;;0.50;0.50;;;;;;;27.17;49.02;98805.63;4984240;28;20145;-72
2023/07/18 07:42:00;;;;;;;0.40;0.40;;;;;;;27.37;48.74;98803.06;4984588;28;20046;-73
2023/07/18 07:44:27;;;;;;;0.40;0.40;;;;;;;27.52;48.30;98781.31;4983780;28;20101;-73
2023/07/18 07:46:54;;;;;;;0.40;0.40;;;;;;;27.69;47.96;98789.97;4970208;28;20046;-73
2023/07/18 07:49:21;;;;;;;0.40;0.40;;;;;;;28.09;46.68;98795.16;4959940;28;20133;-73
2023/07/18 07:51:49;;;;;;;0.50;0.50;;;;;;;28.34;45.59;98792.06;4954280;28;20440;-73
2023/07/18 07:54:15;;;;;;;0.50;0.50;;;;;;;28.40;45.76;98786.78;4999123;28;20069;-73
2023/07/18 07:56:43;;;;;;;0.50;0.50;;;;;;;28.51;45.71;98786.66;4968329;28;20429;-72
2023/07/18 07:59:09;;;;;;;0.40;0.40;;;;;;;28.66;46.03;98785.22;5003623;28;20309;-72
2023/07/18 08:01:35;;;;;;;0.50;0.50;;;;;;;28.71;45.96;98778.34;4986254;28;20069;-72
2023/07/18 08:04:02;;;;;;;0.50;0.50;;;;;;;28.76;45.88;98765.81;4983538;28;20355;-73
2023/07/18 08:06:28;;;;;;;0.50;0.50;;;;;;;29.21;44.79;98759.94;5001784;28;20137;-74
2023/07/18 08:08:54;;;;;;;0.50;0.50;;;;;;;29.77;43.87;98752.91;4985502;28;20054;-73
2023/07/18 08:11:21;;;;;;;0.50;0.50;;;;;;;30.05;42.77;98749.97;4970682;28;20083;-72
2023/07/18 08:13:48;;;;;;;0.50;0.50;;;;;;;30.26;43.09;98748.72;4987905;28;20050;-73
2023/07/18 08:16:14;;;;;;;0.50;0.50;;;;;;;30.47;42.29;98743.88;4985242;28;20051;-73
2023/07/18 08:18:41;;;;;;;0.50;0.50;;;;;;;30.65;42.57;98747.13;4985571;28;20148;-72
2023/07/18 08:21:07;;;;;;;0.50;0.50;;;;;;;30.64;42.22;98742.72;4983189;28;20314;-72
2023/07/18 08:23:34;;;;;;;0.50;0.50;;;;;;;30.45;42.39;98732.25;4981734;28;20057;-72
2023/07/18 08:26:00;;;;;;;0.55;0.55;;;;;;;30.30;43.00;98734.56;4982049;28;20425;-73
2023/07/18 08:28:26;;;;;;;0.50;0.50;;;;;;;30.03;42.87;98738.34;4985936;28;20054;-73
2023/07/18 08:30:53;;;;;;;0.50;0.50;;;;;;;30.04;43.31;98726.66;4970714;28;20141;-73
2023/07/18 08:33:21;;;;;;;0.50;0.50;;;;;;;30.24;42.54;98723.81;4975019;28;20058;-73
2023/07/18 08:35:49;;;;;;;0.60;0.60;;;;;;;30.33;42.12;98736.50;4983244;28;20066;-73
2023/07/18 08:38:15;;;;;;;0.50;0.50;;;;;;;30.38;42.48;98733.97;4984615;28;20046;-72
2023/07/18 08:40:43;;;;;;;0.60;0.60;;;;;;;30.58;41.88;98740.81;4980442;28;20050;-74
2023/07/18 08:43:14;;;;;;;0.55;0.55;;;;;;;30.65;41.64;98727.38;4966504;28;20550;-73
2023/07/18 08:45:41;;;;;;;0.60;0.60;;;;;;;30.39;42.58;98720.69;4984029;28;20050;-73
2023/07/18 08:48:09;;;;;;;0.60;0.60;;;;;;;30.38;42.60;98710.66;4983821;28;20057;-73
2023/07/18 08:50:37;;;;;;;0.60;0.60;;;;;;;30.63;42.14;98715.75;4982490;28;20049;-74
2023/07/18 08:53:05;;;;;;;0.60;0.60;;;;;;;31.20;41.34;98717.59;4983222;28;20062;-73
2023/07/18 08:55:31;;;;;;;0.60;0.60;;;;;;;31.52;40.20;98713.16;4966548;28;20128;-73
2023/07/18 08:57:59;;;;;;;0.60;0.60;;;;;;;31.46;40.34;98701.59;5000596;28;20056;-73
2023/07/18 09:00:25;;;;;;;0.60;0.60;;;;;;;31.34;40.71;98713.63;4983862;28;20492;-73
2023/07/18 09:02:51;;;;;;;0.60;0.60;;;;;;;31.57;40.05;98701.28;4982902;28;20512;-73
2023/07/18 09:05:29;;;;;;;0.70;0.70;;;;;;;32.54;38.00;98689.19;4981956;28;20050;-73
2023/07/18 09:07:56;;;;;;;0.63;0.63;;;;;;;32.93;37.67;98683.53;4977134;28;20039;-73
2023/07/18 09:10:22;;;;;;;0.60;0.60;;;;;;;33.33;36.57;98679.38;4976665;28;20552;-72
2023/07/18 09:12:48;;;;;;;0.60;0.60;;;;;;;33.20;36.96;98685.06;4983579;28;20068;-73
2023/07/18 09:15:18;;;;;;;0.60;0.60;;;;;;;32.65;37.96;98690.91;4984422;28;20598;-73
2023/07/18 09:17:49;;;;;;;0.70;0.70;;;;;;;32.32;38.10;98683.44;4982034;28;20047;-73
2023/07/18 09:20:17;;;;;;;0.65;0.65;;;;;;;32.31;38.82;98681.81;4970548;28;20047;-73
2023/07/18 09:22:44;;;;;;;0.60;0.60;;;;;;;32.27;38.41;98666.22;4968022;28;20050;-73
2023/07/18 09:25:14;;;;;;;0.57;0.57;;;;;;;31.86;42.32;98671.50;4994675;28;20416;-73
2023/07/18 09:27:40;;;;;;;0.50;0.50;;;;;;;30.99;43.53;98666.91;4982795;28;20145;-73
2023/07/18 09:30:07;;;;;;;;;;;;;;;29.91;46.44;98667.34;4983074;28;20078;-72
2023/07/18 09:32:34;;;;;;;0.60;0.60;;;;;;;29.33;50.64;98659.19;4982749;28;19937;-72
2023/07/18 09:35:01;;;;;;;0.70;0.70;;;;;;;28.48;54.17;98658.22;4985245;28;20113;-72
2023/07/18 09:37:43;;;;;;;0.70;0.70;;;;;;;26.89;59.30;98661.63;4984526;28;20108;-72
2023/07/18 09:40:12;;;;;;;0.70;0.70;;;;;;;26.20;59.14;98662.09;4982865;28;20053;-72
2023/07/18 09:42:40;;;;;;;0.43;0.43;;;;;;;25.44;64.96;98656.75;4962755;28;20089;-72
2023/07/18 09:45:08;;;;;;;0.60;0.60;;;;;;;24.32;70.54;98635.22;4977629;28;20137;-72
2023/07/18 09:47:35;;;;;;;0.52;0.52;;;;;;;24.50;64.24;98646.44;4980377;28;20045;-72
2023/07/18 09:50:02;;;;;;;0.70;0.70;;;;;;;24.72;66.68;98644.44;4943994;28;20050;-72
2023/07/18 09:52:34;;;;;;;1.10;0.90;;;;;;;24.91;65.12;98634.88;4979667;28;20112;-73
2023/07/18 09:55:04;;;;;;;0.82;0.82;;;;;;;25.35;65.55;98623.59;4983817;28;20042;-71
2023/07/18 09:57:34;;;;;;;1.55;1.23;;;;;;;25.69;62.68;98625.13;4981145;28;20137;-72
2023/07/18 10:00:05;;;;;;;2.55;1.60;;;;;;;26.13;61.13;98622.88;4972666;28;20058;-72
2023/07/18 10:02:35;;;;;;;0.47;0.47;;;;;;;26.76;56.67;98617.25;4982942;28;20109;-71
2023/07/18 10:05:02;;;;;;;0.50;0.50;;;;;;;26.40;58.95;98617.56;4978554;28;20042;-72
2023/07/18 10:07:30;;;;;;;0.40;0.40;;;;;;;25.75;60.54;98609.50;4983221;28;20378;-72
2023/07/18 10:09:56;;;;;;;;;;;;;;;25.63;61.37;98611.56;4985233;28;20129;-72
2023/07/18 10:12:22;;;;;;;0.40;0.40;;;;;;;25.92;61.58;98605.00;4971343;28;19930;-72
2023/07/18 10:14:56;;;;;;;0.40;0.40;;;;;;;26.11;59.10;98594.50;5001537;28;20352;-72
2023/07/18 10:17:33;;;;;;;0.40;0.40;;;;;;;25.91;60.34;98590.22;4986164;28;20077;-72
2023/07/18 10:20:02;;;;;;;0.50;0.50;;;;;;;25.63;59.68;98591.16;4970965;28;20588;-71
2023/07/18 10:22:31;;;;;;;0.50;0.50;;;;;;;25.61;64.00;98579.59;4978381;28;20107;-71
2023/07/18 10:24:59;;;;;;;0.50;0.50;;;;;;;26.08;59.10;98564.53;4985066;28;20067;-71
2023/07/18 10:27:36;;;;;;;0.50;0.50;;;;;;;25.91;60.15;98565.03;4955345;28;20062;-71
2023/07/18 10:30:05;;;;;;;0.30;0.30;;;;;;;26.35;60.42;98563.97;4980581;28;20069;-71
2023/07/18 10:32:33;;;;;;;0.40;0.40;;;;;;;25.77;58.92;98554.72;4999716;28;20145;-71
2023/07/18 10:35:04;;;;;;;0.30;0.30;;;;;;;25.42;63.08;98538.88;4985040;28;20046;-71
2023/07/18 10:37:31;;;;;;;0.30;0.30;;;;;;;25.00;67.20;98525.47;4986473;28;20049;-71
2023/07/18 10:39:57;;;;;;;0.30;0.30;;;;;;;25.01;69.85;98527.03;4985438;28;20042;-71
2023/07/18 10:42:30;;;;;;;0.30;0.30;;;;;;;24.97;72.15;98537.41;5004013;28;20057;-72
2023/07/18 10:44:58;;;;;;;0.30;0.30;;;;;;;24.75;73.68;98525.50;4987365;28;20309;-72
2023/07/18 10:47:27;;;;;;;0.30;0.30;;;;;;;24.57;76.15;98531.09;4635484;28;9999706;-72
2023/07/18 10:49:54;;;;;;;0.20;0.20;;;;;;;24.41;77.24;98521.13;4982226;28;20629;-73
2023/07/18 10:52:21;;;;;;;0.20;0.20;;;;;;;24.36;79.03;98527.13;4984153;28;20058;-73
2023/07/18 10:54:54;;;;;;;0.30;0.30;;;;;;;24.26;77.47;98528.69;4965790;28;20129;-72
2023/07/18 10:57:25;;;;;;;0.20;0.20;;;;;;;24.22;78.59;98519.53;4976724;28;20552;-74
2023/07/18 10:59:52;;;;;;;0.30;0.30;;;;;;;24.10;75.01;98505.97;4980890;28;20046;-73
2023/07/18 11:02:19;;;;;;;0.20;0.20;;;;;;;24.05;77.22;98513.56;4982580;28;20181;-72
2023/07/18 11:04:48;;;;;;;0.20;0.20;;;;;;;23.93;71.99;98539.81;4971709;28;20529;-72
2023/07/18 11:07:14;;;;;;;0.30;0.30;;;;;;;23.56;73.28;98540.13;4981977;28;20069;-72
2023/07/18 11:09:42;;;;;;;0.25;0.25;;;;;;;23.19;75.62;98505.72;4964861;28;20046;-72
2023/07/18 11:12:16;;;;;;;0.20;0.20;;;;;;;22.95;77.83;98530.31;4983100;28;20053;-72
2023/07/18 11:14:43;;;;;;;0.30;0.30;;;;;;;22.73;79.16;98519.00;4998223;28;20130;-72
2023/07/18 11:17:11;;;;;;;0.30;0.30;;;;;;;22.58;79.67;98506.19;4982847;28;20047;-73
2023/07/18 11:19:38;;;;;;;0.30;0.30;;;;;;;22.41;80.43;98500.06;4959189;28;20396;-72
2023/07/18 11:22:06;;;;;;;0.20;0.20;;;;;;;22.42;79.68;98506.44;4996719;28;20069;-72
2023/07/18 11:24:33;;;;;;;0.30;0.30;;;;;;;22.42;80.00;98521.16;4980492;28;20129;-72
2023/07/18 11:27:17;;;;;;;0.20;0.20;;;;;;;22.24;78.74;98532.94;4982617;28;20140;-72
2023/07/18 11:30:08;;;;;;;0.28;0.28;;;;;;;22.12;81.87;98532.44;4977362;28;20088;-72
2023/07/18 11:32:38;;;;;;;0.30;0.30;;;;;;;22.01;82.45;98510.88;4978162;28;20054;-72
2023/07/18 11:35:06;;;;;;;0.20;0.20;;;;;;;22.07;84.88;98523.25;4983202;28;20089;-72